Terminal Aerodrome Forecast
Issued by NWS Brownsville, TX

Current Version | Previous Version | Text Only | Print | Product List | Glossary Off
Versions: 1 2 3 4 5 6 7 8 9 10 11 12 13 14

000
FTUS44 KBRO 301100
TAFBRO
TAF
KBRO 301121Z 3012/3112 00000KT 6SM BR SKC
      TEMPO 3012/3013 5SM BR
     FM301500 VRB03KT P6SM SCT035 BKN060
     FM302100 06010KT P6SM FEW040 BKN060
     FM310100 09004KT P6SM FEW060
     FM310900 36002KT 5SM BR BKN030=

USA.gov is the U.S. government's official web portal to all federal, state and local government web resources and services.